sensor_id;sensor_type;location;lat;lon;timestamp;P1;durP1;ratioP1;P2;durP2;ratioP2
51304;SDS011;37392;50.964;6.952;2022-10-26T00:00:06;12.30;;;2.40;;
51304;SDS011;37392;50.964;6.952;2022-10-26T00:02:33;5.47;;;2.03;;
51304;SDS011;37392;50.964;6.952;2022-10-26T00:04:59;11.88;;;2.53;;
51304;SDS011;37392;50.964;6.952;2022-10-26T00:07:24;12.75;;;2.13;;
51304;SDS011;37392;50.964;6.952;2022-10-26T00:09:50;12.85;;;2.40;;
51304;SDS011;37392;50.964;6.952;2022-10-26T00:12:15;14.10;;;2.22;;
51304;SDS011;37392;50.964;6.952;2022-10-26T00:14:41;7.60;;;2.00;;
51304;SDS011;37392;50.964;6.952;2022-10-26T00:17:06;13.73;;;4.18;;
51304;SDS011;37392;50.964;6.952;2022-10-26T00:19:32;11.43;;;1.75;;
51304;SDS011;37392;50.964;6.952;2022-10-26T00:21:59;11.20;;;2.58;;
51304;SDS011;37392;50.964;6.952;2022-10-26T00:24:24;3.75;;;1.92;;
51304;SDS011;37392;50.964;6.952;2022-10-26T00:26:50;11.65;;;2.67;;
51304;SDS011;37392;50.964;6.952;2022-10-26T00:29:15;10.90;;;2.05;;
51304;SDS011;37392;50.964;6.952;2022-10-26T00:31:42;4.20;;;2.10;;
51304;SDS011;37392;50.964;6.952;2022-10-26T00:34:08;8.82;;;2.03;;
51304;SDS011;37392;50.964;6.952;2022-10-26T00:36:35;6.07;;;2.00;;
51304;SDS011;37392;50.964;6.952;2022-10-26T00:39:01;8.63;;;2.45;;
51304;SDS011;37392;50.964;6.952;2022-10-26T00:41:31;4.30;;;1.95;;
51304;SDS011;37392;50.964;6.952;2022-10-26T00:43:58;5.90;;;2.13;;
51304;SDS011;37392;50.964;6.952;2022-10-26T00:46:25;8.15;;;1.50;;
51304;SDS011;37392;50.964;6.952;2022-10-26T00:48:56;3.17;;;1.50;;
51304;SDS011;37392;50.964;6.952;2022-10-26T00:51:33;8.77;;;1.83;;
51304;SDS011;37392;50.964;6.952;2022-10-26T00:54:08;8.68;;;2.58;;
51304;SDS011;37392;50.964;6.952;2022-10-26T00:56:39;5.72;;;2.30;;
51304;SDS011;37392;50.964;6.952;2022-10-26T00:59:07;7.15;;;1.60;;
51304;SDS011;37392;50.964;6.952;2022-10-26T01:01:37;18.75;;;1.90;;
51304;SDS011;37392;50.964;6.952;2022-10-26T01:04:05;10.30;;;2.90;;
51304;SDS011;37392;50.964;6.952;2022-10-26T01:06:31;10.35;;;3.75;;
51304;SDS011;37392;50.964;6.952;2022-10-26T01:08:58;6.80;;;1.70;;
51304;SDS011;37392;50.964;6.952;2022-10-26T01:11:24;12.70;;;1.60;;
51304;SDS011;37392;50.964;6.952;2022-10-26T01:13:50;5.70;;;1.50;;
51304;SDS011;37392;50.964;6.952;2022-10-26T01:21:45;12.77;;;2.03;;
51304;SDS011;37392;50.964;6.952;2022-10-26T01:27:30;5.07;;;1.98;;
51304;SDS011;37392;50.964;6.952;2022-10-26T01:36:42;11.13;;;2.05;;
51304;SDS011;37392;50.964;6.952;2022-10-26T01:39:27;39.70;;;6.80;;
51304;SDS011;37392;50.964;6.952;2022-10-26T01:42:02;2.78;;;1.55;;
51304;SDS011;37392;50.964;6.952;2022-10-26T01:44:40;7.53;;;1.50;;
51304;SDS011;37392;50.964;6.952;2022-10-26T01:47:13;13.23;;;1.60;;
51304;SDS011;37392;50.964;6.952;2022-10-26T01:49:42;21.27;;;2.28;;
51304;SDS011;37392;50.964;6.952;2022-10-26T01:52:13;8.07;;;1.73;;
51304;SDS011;37392;50.964;6.952;2022-10-26T01:54:39;7.85;;;1.83;;
51304;SDS011;37392;50.964;6.952;2022-10-26T01:57:05;12.15;;;2.03;;
51304;SDS011;37392;50.964;6.952;2022-10-26T01:59:46;7.32;;;1.90;;
51304;SDS011;37392;50.964;6.952;2022-10-26T02:02:53;10.15;;;2.15;;
51304;SDS011;37392;50.964;6.952;2022-10-26T02:11:00;6.53;;;1.75;;
51304;SDS011;37392;50.964;6.952;2022-10-26T02:13:46;10.48;;;2.70;;
51304;SDS011;37392;50.964;6.952;2022-10-26T02:21:52;2.50;;;1.40;;
51304;SDS011;37392;50.964;6.952;2022-10-26T02:24:27;10.07;;;1.90;;
51304;SDS011;37392;50.964;6.952;2022-10-26T02:26:53;22.27;;;1.83;;
51304;SDS011;37392;50.964;6.952;2022-10-26T02:29:20;8.20;;;1.88;;
51304;SDS011;37392;50.964;6.952;2022-10-26T02:31:48;13.13;;;1.90;;
51304;SDS011;37392;50.964;6.952;2022-10-26T02:34:17;5.88;;;1.52;;
51304;SDS011;37392;50.964;6.952;2022-10-26T02:36:47;10.98;;;2.13;;
51304;SDS011;37392;50.964;6.952;2022-10-26T02:39:15;4.72;;;1.45;;
51304;SDS011;37392;50.964;6.952;2022-10-26T02:41:43;5.82;;;1.73;;
51304;SDS011;37392;50.964;6.952;2022-10-26T02:44:15;8.25;;;1.75;;
51304;SDS011;37392;50.964;6.952;2022-10-26T02:46:53;9.45;;;1.77;;
51304;SDS011;37392;50.964;6.952;2022-10-26T02:49:19;8.15;;;1.90;;
51304;SDS011;37392;50.964;6.952;2022-10-26T02:51:49;8.38;;;1.92;;
51304;SDS011;37392;50.964;6.952;2022-10-26T02:54:43;10.68;;;2.10;;
51304;SDS011;37392;50.964;6.952;2022-10-26T02:57:40;5.93;;;2.13;;
51304;SDS011;37392;50.964;6.952;2022-10-26T03:00:11;4.65;;;1.83;;
51304;SDS011;37392;50.964;6.952;2022-10-26T03:02:43;9.90;;;1.83;;
51304;SDS011;37392;50.964;6.952;2022-10-26T03:05:14;10.85;;;2.10;;
51304;SDS011;37392;50.964;6.952;2022-10-26T03:07:44;9.02;;;2.15;;
51304;SDS011;37392;50.964;6.952;2022-10-26T03:10:10;10.88;;;1.58;;
51304;SDS011;37392;50.964;6.952;2022-10-26T03:12:35;11.30;;;2.25;;
51304;SDS011;37392;50.964;6.952;2022-10-26T03:15:01;19.05;;;2.10;;
51304;SDS011;37392;50.964;6.952;2022-10-26T03:17:28;18.08;;;2.28;;
51304;SDS011;37392;50.964;6.952;2022-10-26T03:19:53;6.70;;;2.20;;
51304;SDS011;37392;50.964;6.952;2022-10-26T03:22:20;9.55;;;2.33;;
51304;SDS011;37392;50.964;6.952;2022-10-26T03:24:46;8.32;;;1.63;;
51304;SDS011;37392;50.964;6.952;2022-10-26T03:27:12;13.13;;;2.45;;
51304;SDS011;37392;50.964;6.952;2022-10-26T03:29:39;8.48;;;1.55;;
51304;SDS011;37392;50.964;6.952;2022-10-26T03:32:04;6.45;;;2.08;;
51304;SDS011;37392;50.964;6.952;2022-10-26T03:34:30;7.82;;;2.05;;
51304;SDS011;37392;50.964;6.952;2022-10-26T03:36:56;5.93;;;2.10;;
51304;SDS011;37392;50.964;6.952;2022-10-26T03:39:21;8.02;;;1.92;;
51304;SDS011;37392;50.964;6.952;2022-10-26T03:41:47;13.70;;;2.97;;
51304;SDS011;37392;50.964;6.952;2022-10-26T03:44:12;12.75;;;2.70;;
51304;SDS011;37392;50.964;6.952;2022-10-26T03:46:38;7.35;;;2.28;;
51304;SDS011;37392;50.964;6.952;2022-10-26T03:49:04;6.57;;;1.75;;
51304;SDS011;37392;50.964;6.952;2022-10-26T03:51:29;10.27;;;2.40;;
51304;SDS011;37392;50.964;6.952;2022-10-26T03:53:55;13.80;;;2.60;;
51304;SDS011;37392;50.964;6.952;2022-10-26T03:56:21;13.02;;;2.42;;
51304;SDS011;37392;50.964;6.952;2022-10-26T03:58:47;8.82;;;2.60;;
51304;SDS011;37392;50.964;6.952;2022-10-26T04:01:12;15.95;;;2.63;;
51304;SDS011;37392;50.964;6.952;2022-10-26T04:03:38;5.80;;;1.92;;
51304;SDS011;37392;50.964;6.952;2022-10-26T04:06:03;11.70;;;1.80;;
51304;SDS011;37392;50.964;6.952;2022-10-26T04:08:29;12.15;;;2.45;;
51304;SDS011;37392;50.964;6.952;2022-10-26T04:10:55;7.43;;;2.40;;
51304;SDS011;37392;50.964;6.952;2022-10-26T04:13:21;11.32;;;1.95;;
51304;SDS011;37392;50.964;6.952;2022-10-26T04:15:46;4.93;;;1.90;;
51304;SDS011;37392;50.964;6.952;2022-10-26T04:18:12;9.95;;;1.92;;
51304;SDS011;37392;50.964;6.952;2022-10-26T04:20:38;9.85;;;2.00;;
51304;SDS011;37392;50.964;6.952;2022-10-26T04:23:06;7.65;;;1.60;;
51304;SDS011;37392;50.964;6.952;2022-10-26T04:25:36;9.80;;;2.00;;
51304;SDS011;37392;50.964;6.952;2022-10-26T04:28:02;6.88;;;1.90;;
51304;SDS011;37392;50.964;6.952;2022-10-26T04:30:29;17.70;;;3.53;;
51304;SDS011;37392;50.964;6.952;2022-10-26T04:32:56;12.35;;;1.92;;
51304;SDS011;37392;50.964;6.952;2022-10-26T04:35:22;11.00;;;2.33;;
51304;SDS011;37392;50.964;6.952;2022-10-26T04:37:48;8.30;;;2.58;;
51304;SDS011;37392;50.964;6.952;2022-10-26T04:40:13;6.15;;;1.77;;
51304;SDS011;37392;50.964;6.952;2022-10-26T04:42:42;10.35;;;1.88;;
51304;SDS011;37392;50.964;6.952;2022-10-26T04:47:36;8.13;;;3.83;;
51304;SDS011;37392;50.964;6.952;2022-10-26T04:50:03;9.35;;;1.98;;
51304;SDS011;37392;50.964;6.952;2022-10-26T04:52:29;10.23;;;2.28;;
51304;SDS011;37392;50.964;6.952;2022-10-26T04:54:54;11.85;;;2.40;;
51304;SDS011;37392;50.964;6.952;2022-10-26T04:57:20;9.35;;;1.92;;
51304;SDS011;37392;50.964;6.952;2022-10-26T04:59:45;8.85;;;2.05;;
51304;SDS011;37392;50.964;6.952;2022-10-26T05:02:11;12.98;;;2.38;;
51304;SDS011;37392;50.964;6.952;2022-10-26T05:04:37;6.13;;;1.65;;
51304;SDS011;37392;50.964;6.952;2022-10-26T05:07:02;7.68;;;2.75;;
51304;SDS011;37392;50.964;6.952;2022-10-26T05:09:28;6.40;;;1.67;;
51304;SDS011;37392;50.964;6.952;2022-10-26T05:11:53;8.88;;;2.22;;
51304;SDS011;37392;50.964;6.952;2022-10-26T05:14:19;12.70;;;2.00;;
51304;SDS011;37392;50.964;6.952;2022-10-26T05:16:44;12.10;;;2.35;;
51304;SDS011;37392;50.964;6.952;2022-10-26T05:19:10;8.43;;;2.03;;
51304;SDS011;37392;50.964;6.952;2022-10-26T05:21:35;5.18;;;2.17;;
51304;SDS011;37392;50.964;6.952;2022-10-26T05:24:01;7.03;;;2.30;;
51304;SDS011;37392;50.964;6.952;2022-10-26T05:26:27;8.32;;;1.98;;
51304;SDS011;37392;50.964;6.952;2022-10-26T05:28:52;8.70;;;1.70;;
51304;SDS011;37392;50.964;6.952;2022-10-26T05:31:18;6.93;;;2.00;;
51304;SDS011;37392;50.964;6.952;2022-10-26T05:33:48;4.05;;;1.90;;
51304;SDS011;37392;50.964;6.952;2022-10-26T05:36:15;6.78;;;2.15;;
51304;SDS011;37392;50.964;6.952;2022-10-26T05:38:43;6.95;;;2.92;;
51304;SDS011;37392;50.964;6.952;2022-10-26T05:41:09;9.48;;;2.58;;
51304;SDS011;37392;50.964;6.952;2022-10-26T05:43:35;4.18;;;2.20;;
51304;SDS011;37392;50.964;6.952;2022-10-26T05:46:00;8.70;;;2.33;;
51304;SDS011;37392;50.964;6.952;2022-10-26T05:48:26;18.08;;;2.13;;
51304;SDS011;37392;50.964;6.952;2022-10-26T05:50:51;5.53;;;1.80;;
51304;SDS011;37392;50.964;6.952;2022-10-26T05:53:17;12.00;;;2.25;;
51304;SDS011;37392;50.964;6.952;2022-10-26T05:55:43;9.38;;;1.98;;
51304;SDS011;37392;50.964;6.952;2022-10-26T05:58:10;17.95;;;1.98;;
51304;SDS011;37392;50.964;6.952;2022-10-26T06:01:03;12.60;;;2.30;;
51304;SDS011;37392;50.964;6.952;2022-10-26T06:04:23;8.27;;;2.40;;
51304;SDS011;37392;50.964;6.952;2022-10-26T06:07:10;15.93;;;2.80;;
51304;SDS011;37392;50.964;6.952;2022-10-26T06:09:44;9.45;;;2.25;;
51304;SDS011;37392;50.964;6.952;2022-10-26T06:12:11;12.15;;;2.42;;
51304;SDS011;37392;50.964;6.952;2022-10-26T06:14:38;6.75;;;2.38;;
51304;SDS011;37392;50.964;6.952;2022-10-26T06:17:10;10.73;;;1.88;;
51304;SDS011;37392;50.964;6.952;2022-10-26T06:32:21;5.50;;;2.03;;
51304;SDS011;37392;50.964;6.952;2022-10-26T06:34:51;8.50;;;2.40;;
51304;SDS011;37392;50.964;6.952;2022-10-26T06:37:29;7.78;;;2.03;;
51304;SDS011;37392;50.964;6.952;2022-10-26T06:39:55;7.88;;;2.05;;
51304;SDS011;37392;50.964;6.952;2022-10-26T06:42:22;3.95;;;2.17;;
51304;SDS011;37392;50.964;6.952;2022-10-26T06:44:48;8.82;;;2.55;;
51304;SDS011;37392;50.964;6.952;2022-10-26T06:47:19;4.15;;;2.30;;
51304;SDS011;37392;50.964;6.952;2022-10-26T06:50:09;5.90;;;2.33;;
51304;SDS011;37392;50.964;6.952;2022-10-26T06:52:46;9.02;;;2.10;;
51304;SDS011;37392;50.964;6.952;2022-10-26T06:55:21;12.02;;;2.72;;
51304;SDS011;37392;50.964;6.952;2022-10-26T06:57:47;9.40;;;3.08;;
51304;SDS011;37392;50.964;6.952;2022-10-26T07:02:48;14.68;;;3.85;;
51304;SDS011;37392;50.964;6.952;2022-10-26T07:05:14;9.20;;;3.25;;
51304;SDS011;37392;50.964;6.952;2022-10-26T07:07:43;21.95;;;3.33;;
51304;SDS011;37392;50.964;6.952;2022-10-26T07:10:11;12.18;;;3.53;;
51304;SDS011;37392;50.964;6.952;2022-10-26T07:12:38;11.07;;;3.17;;
51304;SDS011;37392;50.964;6.952;2022-10-26T07:15:04;15.70;;;3.28;;
51304;SDS011;37392;50.964;6.952;2022-10-26T07:17:41;7.70;;;2.85;;
51304;SDS011;37392;50.964;6.952;2022-10-26T07:20:12;7.20;;;3.25;;
51304;SDS011;37392;50.964;6.952;2022-10-26T07:22:38;7.68;;;3.08;;
51304;SDS011;37392;50.964;6.952;2022-10-26T07:25:04;14.80;;;3.97;;
51304;SDS011;37392;50.964;6.952;2022-10-26T07:27:32;22.13;;;4.57;;
51304;SDS011;37392;50.964;6.952;2022-10-26T07:29:57;24.55;;;4.55;;
51304;SDS011;37392;50.964;6.952;2022-10-26T07:32:23;11.77;;;3.78;;
51304;SDS011;37392;50.964;6.952;2022-10-26T07:34:49;21.70;;;4.38;;
51304;SDS011;37392;50.964;6.952;2022-10-26T07:37:14;11.27;;;3.75;;
51304;SDS011;37392;50.964;6.952;2022-10-26T07:39:40;12.98;;;3.60;;
51304;SDS011;37392;50.964;6.952;2022-10-26T07:42:05;17.65;;;4.00;;
51304;SDS011;37392;50.964;6.952;2022-10-26T07:44:31;10.00;;;3.78;;
51304;SDS011;37392;50.964;6.952;2022-10-26T07:46:56;11.07;;;3.55;;
51304;SDS011;37392;50.964;6.952;2022-10-26T07:49:22;16.90;;;4.00;;
51304;SDS011;37392;50.964;6.952;2022-10-26T07:51:48;16.00;;;3.53;;
51304;SDS011;37392;50.964;6.952;2022-10-26T07:54:13;16.85;;;3.65;;
51304;SDS011;37392;50.964;6.952;2022-10-26T07:56:39;20.70;;;4.47;;
51304;SDS011;37392;50.964;6.952;2022-10-26T07:59:04;21.45;;;3.83;;
51304;SDS011;37392;50.964;6.952;2022-10-26T08:01:30;19.05;;;3.33;;
51304;SDS011;37392;50.964;6.952;2022-10-26T08:03:56;13.70;;;2.95;;
51304;SDS011;37392;50.964;6.952;2022-10-26T08:06:22;15.30;;;2.63;;
51304;SDS011;37392;50.964;6.952;2022-10-26T08:08:48;22.75;;;4.13;;
51304;SDS011;37392;50.964;6.952;2022-10-26T08:11:14;12.98;;;3.22;;
51304;SDS011;37392;50.964;6.952;2022-10-26T08:13:40;15.18;;;2.65;;
51304;SDS011;37392;50.964;6.952;2022-10-26T08:16:07;17.38;;;4.13;;
51304;SDS011;37392;50.964;6.952;2022-10-26T08:18:32;15.90;;;2.58;;
51304;SDS011;37392;50.964;6.952;2022-10-26T08:21:05;7.32;;;2.25;;
51304;SDS011;37392;50.964;6.952;2022-10-26T08:23:34;14.60;;;3.17;;
51304;SDS011;37392;50.964;6.952;2022-10-26T08:26:01;13.68;;;2.33;;
51304;SDS011;37392;50.964;6.952;2022-10-26T08:28:28;13.38;;;2.40;;
51304;SDS011;37392;50.964;6.952;2022-10-26T08:30:54;7.72;;;2.55;;
51304;SDS011;37392;50.964;6.952;2022-10-26T08:33:21;17.70;;;2.95;;
51304;SDS011;37392;50.964;6.952;2022-10-26T08:35:48;22.00;;;2.83;;
51304;SDS011;37392;50.964;6.952;2022-10-26T08:38:19;5.15;;;1.85;;
51304;SDS011;37392;50.964;6.952;2022-10-26T08:40:44;6.25;;;2.58;;
51304;SDS011;37392;50.964;6.952;2022-10-26T08:43:24;8.13;;;2.50;;
51304;SDS011;37392;50.964;6.952;2022-10-26T08:48:45;10.00;;;2.90;;
51304;SDS011;37392;50.964;6.952;2022-10-26T08:51:22;9.30;;;2.75;;
51304;SDS011;37392;50.964;6.952;2022-10-26T08:54:02;11.93;;;2.38;;
51304;SDS011;37392;50.964;6.952;2022-10-26T08:56:51;15.05;;;2.30;;
51304;SDS011;37392;50.964;6.952;2022-10-26T09:01:54;7.85;;;2.10;;
51304;SDS011;37392;50.964;6.952;2022-10-26T09:04:27;11.48;;;2.60;;
51304;SDS011;37392;50.964;6.952;2022-10-26T09:10:33;10.15;;;2.28;;
51304;SDS011;37392;50.964;6.952;2022-10-26T09:24:38;10.55;;;2.63;;
51304;SDS011;37392;50.964;6.952;2022-10-26T09:27:17;10.30;;;2.50;;
51304;SDS011;37392;50.964;6.952;2022-10-26T09:29:55;13.48;;;3.70;;
51304;SDS011;37392;50.964;6.952;2022-10-26T09:32:25;9.57;;;2.17;;
51304;SDS011;37392;50.964;6.952;2022-10-26T09:35:03;12.10;;;2.35;;
51304;SDS011;37392;50.964;6.952;2022-10-26T09:37:39;5.97;;;2.15;;
51304;SDS011;37392;50.964;6.952;2022-10-26T09:43:19;11.27;;;3.35;;
51304;SDS011;37392;50.964;6.952;2022-10-26T09:45:53;6.05;;;2.10;;
51304;SDS011;37392;50.964;6.952;2022-10-26T09:48:20;8.75;;;2.47;;
51304;SDS011;37392;50.964;6.952;2022-10-26T09:50:52;10.57;;;2.33;;
51304;SDS011;37392;50.964;6.952;2022-10-26T09:53:17;13.93;;;2.65;;
51304;SDS011;37392;50.964;6.952;2022-10-26T09:55:47;9.18;;;2.28;;
51304;SDS011;37392;50.964;6.952;2022-10-26T09:58:19;11.98;;;2.53;;
51304;SDS011;37392;50.964;6.952;2022-10-26T10:00:54;18.07;;;2.63;;
51304;SDS011;37392;50.964;6.952;2022-10-26T10:03:25;14.18;;;7.53;;
51304;SDS011;37392;50.964;6.952;2022-10-26T10:06:15;8.57;;;2.38;;
51304;SDS011;37392;50.964;6.952;2022-10-26T10:11:57;13.25;;;4.30;;
51304;SDS011;37392;50.964;6.952;2022-10-26T10:16:57;9.90;;;2.88;;
51304;SDS011;37392;50.964;6.952;2022-10-26T10:19:32;12.23;;;3.15;;
51304;SDS011;37392;50.964;6.952;2022-10-26T10:22:00;6.85;;;2.83;;
51304;SDS011;37392;50.964;6.952;2022-10-26T10:24:38;10.07;;;2.50;;
51304;SDS011;37392;50.964;6.952;2022-10-26T10:29:40;6.43;;;1.92;;
51304;SDS011;37392;50.964;6.952;2022-10-26T10:32:15;14.85;;;2.42;;
51304;SDS011;37392;50.964;6.952;2022-10-26T10:34:55;8.35;;;2.90;;
51304;SDS011;37392;50.964;6.952;2022-10-26T10:37:33;6.10;;;2.72;;
51304;SDS011;37392;50.964;6.952;2022-10-26T10:40:16;10.43;;;3.03;;
51304;SDS011;37392;50.964;6.952;2022-10-26T10:42:45;10.93;;;3.88;;
51304;SDS011;37392;50.964;6.952;2022-10-26T10:45:34;17.17;;;7.78;;
51304;SDS011;37392;50.964;6.952;2022-10-26T10:48:03;14.88;;;5.53;;
51304;SDS011;37392;50.964;6.952;2022-10-26T10:59:25;9.68;;;2.70;;
51304;SDS011;37392;50.964;6.952;2022-10-26T11:02:39;9.65;;;2.65;;
51304;SDS011;37392;50.964;6.952;2022-10-26T11:05:48;12.43;;;3.22;;
51304;SDS011;37392;50.964;6.952;2022-10-26T11:14:07;6.82;;;2.22;;
51304;SDS011;37392;50.964;6.952;2022-10-26T11:19:59;11.93;;;5.18;;
51304;SDS011;37392;50.964;6.952;2022-10-26T11:22:39;7.10;;;3.05;;
51304;SDS011;37392;50.964;6.952;2022-10-26T11:30:36;10.60;;;2.70;;
51304;SDS011;37392;50.964;6.952;2022-10-26T11:33:14;6.07;;;2.42;;
51304;SDS011;37392;50.964;6.952;2022-10-26T11:36:00;14.93;;;4.22;;
51304;SDS011;37392;50.964;6.952;2022-10-26T11:38:50;7.18;;;2.97;;
51304;SDS011;37392;50.964;6.952;2022-10-26T11:41:39;20.13;;;3.03;;
51304;SDS011;37392;50.964;6.952;2022-10-26T11:44:34;10.25;;;3.50;;
51304;SDS011;37392;50.964;6.952;2022-10-26T11:47:41;8.70;;;2.05;;
51304;SDS011;37392;50.964;6.952;2022-10-26T11:50:16;11.15;;;4.50;;
51304;SDS011;37392;50.964;6.952;2022-10-26T11:52:51;11.10;;;2.78;;
51304;SDS011;37392;50.964;6.952;2022-10-26T11:55:23;4.40;;;2.28;;
51304;SDS011;37392;50.964;6.952;2022-10-26T11:57:50;12.85;;;2.53;;
51304;SDS011;37392;50.964;6.952;2022-10-26T12:00:19;5.43;;;1.40;;
51304;SDS011;37392;50.964;6.952;2022-10-26T12:02:48;2.97;;;1.88;;
51304;SDS011;37392;50.964;6.952;2022-10-26T12:05:23;5.50;;;1.77;;
51304;SDS011;37392;50.964;6.952;2022-10-26T12:10:41;4.32;;;1.30;;
51304;SDS011;37392;50.964;6.952;2022-10-26T12:16:12;2.67;;;1.80;;
51304;SDS011;37392;50.964;6.952;2022-10-26T12:19:28;7.15;;;2.65;;
51304;SDS011;37392;50.964;6.952;2022-10-26T12:22:08;3.92;;;1.52;;
51304;SDS011;37392;50.964;6.952;2022-10-26T12:24:42;7.32;;;1.45;;
51304;SDS011;37392;50.964;6.952;2022-10-26T12:27:28;3.58;;;1.95;;
51304;SDS011;37392;50.964;6.952;2022-10-26T12:32:57;4.25;;;1.45;;
51304;SDS011;37392;50.964;6.952;2022-10-26T12:40:45;3.47;;;0.95;;
51304;SDS011;37392;50.964;6.952;2022-10-26T12:45:37;2.08;;;0.73;;
51304;SDS011;37392;50.964;6.952;2022-10-26T12:48:19;2.38;;;1.20;;
51304;SDS011;37392;50.964;6.952;2022-10-26T12:50:46;4.78;;;1.63;;
51304;SDS011;37392;50.964;6.952;2022-10-26T12:53:16;1.50;;;0.70;;
51304;SDS011;37392;50.964;6.952;2022-10-26T13:09:54;7.13;;;1.35;;
51304;SDS011;37392;50.964;6.952;2022-10-26T13:12:24;2.28;;;1.13;;
51304;SDS011;37392;50.964;6.952;2022-10-26T13:14:54;2.08;;;0.98;;
51304;SDS011;37392;50.964;6.952;2022-10-26T13:18:00;5.60;;;1.52;;
51304;SDS011;37392;50.964;6.952;2022-10-26T13:20:52;2.25;;;1.10;;
51304;SDS011;37392;50.964;6.952;2022-10-26T13:23:32;3.97;;;1.42;;
51304;SDS011;37392;50.964;6.952;2022-10-26T13:26:09;9.52;;;1.45;;
51304;SDS011;37392;50.964;6.952;2022-10-26T13:31:07;11.70;;;2.53;;
51304;SDS011;37392;50.964;6.952;2022-10-26T13:34:13;9.70;;;2.08;;
51304;SDS011;37392;50.964;6.952;2022-10-26T13:36:49;7.35;;;1.40;;
51304;SDS011;37392;50.964;6.952;2022-10-26T13:39:41;13.50;;;2.47;;
51304;SDS011;37392;50.964;6.952;2022-10-26T13:42:19;12.57;;;2.88;;
51304;SDS011;37392;50.964;6.952;2022-10-26T13:44:51;11.70;;;2.22;;
51304;SDS011;37392;50.964;6.952;2022-10-26T13:47:23;11.95;;;1.70;;
51304;SDS011;37392;50.964;6.952;2022-10-26T13:50:21;5.32;;;1.48;;
51304;SDS011;37392;50.964;6.952;2022-10-26T13:52:53;4.32;;;1.25;;
51304;SDS011;37392;50.964;6.952;2022-10-26T13:55:25;4.80;;;1.23;;
51304;SDS011;37392;50.964;6.952;2022-10-26T13:58:00;6.43;;;1.60;;
51304;SDS011;37392;50.964;6.952;2022-10-26T14:00:27;19.80;;;3.30;;
51304;SDS011;37392;50.964;6.952;2022-10-26T14:02:54;3.85;;;1.83;;
51304;SDS011;37392;50.964;6.952;2022-10-26T14:06:37;24.23;;;4.82;;
51304;SDS011;37392;50.964;6.952;2022-10-26T14:09:14;4.53;;;1.63;;
51304;SDS011;37392;50.964;6.952;2022-10-26T14:11:48;4.22;;;1.42;;
51304;SDS011;37392;50.964;6.952;2022-10-26T14:14:33;6.57;;;1.48;;
51304;SDS011;37392;50.964;6.952;2022-10-26T14:17:02;5.38;;;1.50;;
51304;SDS011;37392;50.964;6.952;2022-10-26T14:19:30;10.35;;;1.60;;
51304;SDS011;37392;50.964;6.952;2022-10-26T14:22:04;5.57;;;1.38;;
51304;SDS011;37392;50.964;6.952;2022-10-26T14:24:32;2.10;;;1.30;;
51304;SDS011;37392;50.964;6.952;2022-10-26T14:27:18;2.10;;;1.00;;
51304;SDS011;37392;50.964;6.952;2022-10-26T14:29:47;4.40;;;1.55;;
51304;SDS011;37392;50.964;6.952;2022-10-26T14:32:21;6.18;;;2.53;;
51304;SDS011;37392;50.964;6.952;2022-10-26T14:34:58;3.90;;;1.92;;
51304;SDS011;37392;50.964;6.952;2022-10-26T14:39:56;4.13;;;2.30;;
51304;SDS011;37392;50.964;6.952;2022-10-26T14:42:38;10.70;;;4.15;;
51304;SDS011;37392;50.964;6.952;2022-10-26T14:45:17;5.97;;;1.55;;
51304;SDS011;37392;50.964;6.952;2022-10-26T14:47:58;2.45;;;1.60;;
51304;SDS011;37392;50.964;6.952;2022-10-26T14:50:25;7.25;;;2.05;;
51304;SDS011;37392;50.964;6.952;2022-10-26T14:52:56;7.43;;;1.60;;
51304;SDS011;37392;50.964;6.952;2022-10-26T14:55:25;4.72;;;1.77;;
51304;SDS011;37392;50.964;6.952;2022-10-26T14:57:51;2.67;;;1.58;;
51304;SDS011;37392;50.964;6.952;2022-10-26T15:00:33;5.57;;;1.70;;
51304;SDS011;37392;50.964;6.952;2022-10-26T15:02:58;6.22;;;2.47;;
51304;SDS011;37392;50.964;6.952;2022-10-26T15:07:57;5.60;;;1.55;;
51304;SDS011;37392;50.964;6.952;2022-10-26T15:16:09;6.85;;;3.08;;
51304;SDS011;37392;50.964;6.952;2022-10-26T15:18:43;7.38;;;2.83;;
51304;SDS011;37392;50.964;6.952;2022-10-26T15:27:03;15.30;;;6.05;;
51304;SDS011;37392;50.964;6.952;2022-10-26T15:29:42;9.52;;;3.55;;
51304;SDS011;37392;50.964;6.952;2022-10-26T15:32:17;8.23;;;2.95;;
51304;SDS011;37392;50.964;6.952;2022-10-26T15:37:50;11.10;;;2.90;;
51304;SDS011;37392;50.964;6.952;2022-10-26T15:40:19;6.07;;;2.72;;
51304;SDS011;37392;50.964;6.952;2022-10-26T15:42:46;4.70;;;2.22;;
51304;SDS011;37392;50.964;6.952;2022-10-26T15:45:16;8.17;;;2.17;;
51304;SDS011;37392;50.964;6.952;2022-10-26T15:47:49;7.32;;;2.45;;
51304;SDS011;37392;50.964;6.952;2022-10-26T15:50:18;10.02;;;1.90;;
51304;SDS011;37392;50.964;6.952;2022-10-26T15:52:53;6.50;;;2.63;;
51304;SDS011;37392;50.964;6.952;2022-10-26T15:55:24;6.50;;;3.10;;
51304;SDS011;37392;50.964;6.952;2022-10-26T15:57:50;7.75;;;3.83;;
51304;SDS011;37392;50.964;6.952;2022-10-26T16:00:16;12.15;;;5.15;;
51304;SDS011;37392;50.964;6.952;2022-10-26T16:02:43;6.25;;;3.00;;
51304;SDS011;37392;50.964;6.952;2022-10-26T16:05:10;5.30;;;3.15;;
51304;SDS011;37392;50.964;6.952;2022-10-26T16:07:38;9.50;;;4.50;;
51304;SDS011;37392;50.964;6.952;2022-10-26T16:10:08;8.85;;;2.80;;
51304;SDS011;37392;50.964;6.952;2022-10-26T16:12:41;7.60;;;3.50;;
51304;SDS011;37392;50.964;6.952;2022-10-26T16:15:07;7.72;;;4.15;;
51304;SDS011;37392;50.964;6.952;2022-10-26T16:17:40;9.82;;;4.45;;
51304;SDS011;37392;50.964;6.952;2022-10-26T16:20:12;13.07;;;4.47;;
51304;SDS011;37392;50.964;6.952;2022-10-26T16:22:41;18.48;;;5.53;;
51304;SDS011;37392;50.964;6.952;2022-10-26T16:25:12;5.50;;;3.35;;
51304;SDS011;37392;50.964;6.952;2022-10-26T16:27:40;15.73;;;4.75;;
51304;SDS011;37392;50.964;6.952;2022-10-26T16:30:05;6.65;;;3.50;;
51304;SDS011;37392;50.964;6.952;2022-10-26T16:32:32;12.00;;;4.55;;
51304;SDS011;37392;50.964;6.952;2022-10-26T16:34:57;16.55;;;7.50;;
51304;SDS011;37392;50.964;6.952;2022-10-26T16:37:23;11.40;;;3.80;;
51304;SDS011;37392;50.964;6.952;2022-10-26T16:39:48;11.60;;;3.22;;
51304;SDS011;37392;50.964;6.952;2022-10-26T16:42:14;8.60;;;3.25;;
51304;SDS011;37392;50.964;6.952;2022-10-26T16:44:40;5.97;;;2.92;;
51304;SDS011;37392;50.964;6.952;2022-10-26T16:47:16;10.13;;;5.22;;
51304;SDS011;37392;50.964;6.952;2022-10-26T16:49:41;16.13;;;4.60;;
51304;SDS011;37392;50.964;6.952;2022-10-26T16:52:12;6.22;;;3.05;;
51304;SDS011;37392;50.964;6.952;2022-10-26T16:54:38;9.25;;;4.57;;
51304;SDS011;37392;50.964;6.952;2022-10-26T16:57:04;15.38;;;7.43;;
51304;SDS011;37392;50.964;6.952;2022-10-26T16:59:29;13.13;;;5.35;;
51304;SDS011;37392;50.964;6.952;2022-10-26T17:01:55;12.57;;;4.68;;
51304;SDS011;37392;50.964;6.952;2022-10-26T17:04:21;11.60;;;5.95;;
51304;SDS011;37392;50.964;6.952;2022-10-26T17:06:47;15.48;;;5.95;;
51304;SDS011;37392;50.964;6.952;2022-10-26T17:09:13;11.38;;;5.38;;
51304;SDS011;37392;50.964;6.952;2022-10-26T17:11:39;19.50;;;6.47;;
51304;SDS011;37392;50.964;6.952;2022-10-26T17:14:05;11.88;;;6.30;;
51304;SDS011;37392;50.964;6.952;2022-10-26T17:16:30;21.33;;;8.38;;
51304;SDS011;37392;50.964;6.952;2022-10-26T17:18:57;12.90;;;7.28;;
51304;SDS011;37392;50.964;6.952;2022-10-26T17:21:27;19.23;;;10.35;;
51304;SDS011;37392;50.964;6.952;2022-10-26T17:24:00;17.33;;;8.48;;
51304;SDS011;37392;50.964;6.952;2022-10-26T17:26:27;19.83;;;7.53;;
51304;SDS011;37392;50.964;6.952;2022-10-26T17:28:53;20.95;;;9.48;;
51304;SDS011;37392;50.964;6.952;2022-10-26T17:31:20;18.40;;;8.75;;
51304;SDS011;37392;50.964;6.952;2022-10-26T17:33:47;20.17;;;7.10;;
51304;SDS011;37392;50.964;6.952;2022-10-26T17:36:14;14.10;;;6.47;;